Date,TemperatureHighF,TemperatureAvgF,TemperatureLowF,DewpointHighF,DewpointAvgF,DewpointLowF,HumidityHigh,HumidityAvg,HumidityLow,PressureMaxIn,PressureMinIn,WindSpeedMaxMPH,WindSpeedAvgMPH,GustSpeedMaxMPH,PrecipitationSumIn
2014-1-1,13,10,6,4,2,-1,64,62,56,32.22,32.22,13,1,13,0.00
2014-1-2,13,7,1,5,-2,-8,64,56,45,32.22,32.22,3,0,3,0.00
2014-1-3,38,25,7,26,11,-8,68,53,47,32.22,32.22,19,2,22,0.04
2014-1-4,37,23,10,30,13,-2,78,61,54,32.22,32.22,17,2,21,0.00
2014-1-5,11,5,-5,0,-8,-21,55,48,42,32.22,32.22,18,3,18,0.00
2014-1-6,8,0,-7,-2,-14,-22,42,41,39,32.22,32.22,15,0,15,0.00
2014-1-7,38,19,1,24,3,-17,57,42,34,32.22,32.22,4,0,4,0.00
2014-1-8,21,18,16,13,10,5,71,63,46,32.22,32.22,4,0,4,0.00
2014-1-9,31,21,10,28,14,4,89,69,53,32.22,32.22,11,0,11,0.00
2014-1-10,35,32,27,35,32,26,98,94,83,32.22,32.22,6,0,6,0.04
2014-1-11,46,36,26,32,26,21,88,61,36,32.22,32.22,10,0,12,0.00
2014-1-12,55,43,38,33,27,23,68,51,36,32.22,32.22,7,0,9,0.00
2014-1-13,49,40,31,29,25,20,72,50,36,32.22,32.22,10,1,10,0.00
2014-1-14,46,35,22,31,17,5,62,42,28,32.22,32.22,20,2,20,0.00
2014-1-15,40,28,13,26,12,1,58,48,42,32.22,32.22,13,0,13,0.00
2014-1-16,45,36,20,29,17,2,62,44,38,32.22,32.22,21,3,22,0.00
2014-1-17,35,25,13,17,8,-2,47,39,28,32.22,32.22,11,0,11,0.00
2014-1-18,44,36,24,26,19,14,65,48,39,32.22,32.22,25,3,25,0.00
2014-1-19,65,43,24,30,21,15,73,43,23,32.22,30.80,11,1,11,0.00
2014-1-20,48,29,6,28,14,-8,62,47,35,33.73,26.70,23,2,23,0.00
2014-1-21,26,13,0,7,-5,-12,47,42,34,32.78,26.49,13,1,13,0.00
2014-1-22,32,21,1,17,6,-15,60,48,41,26.49,26.49,21,2,23,0.00
2014-1-23,17,7,-4,4,-8,-19,45,38,31,26.49,26.49,13,0,13,0.00
2014-1-24,52,35,12,32,14,-9,54,43,35,26.49,26.49,17,3,17,0.00
2014-1-25,49,39,34,35,26,18,79,54,37,26.49,26.49,16,1,17,0.00
2014-1-26,53,38,9,30,18,-10,63,42,33,26.49,26.49,24,4,24,0.00
2014-1-27,13,8,2,1,-8,-16,41,35,32,26.49,26.49,9,0,13,0.00
2014-1-28,22,10,-4,6,-7,-21,45,35,31,26.49,26.49,11,0,11,0.00
2014-1-29,46,27,6,18,4,-12,55,36,28,26.49,26.49,18,1,18,0.00
2014-1-30,40,32,22,19,13,6,47,38,32,26.49,26.49,21,3,21,0.00
2014-1-31,28,21,15,17,9,4,71,51,39,26.49,26.49,4,0,5,0.00
2014-2-1,27,21,14,20,12,2,75,59,42,26.49,26.49,15,1,15,0.00
2014-2-2,32,16,2,15,4,-7,58,51,38,26.49,26.49,7,0,7,0.00
2014-2-3,33,22,10,13,7,0,64,49,38,26.49,26.49,10,0,10,0.00
2014-2-4,29,17,4,22,12,0,85,74,49,26.49,26.49,17,2,18,0.00
2014-2-5,10,4,-3,8,-3,-18,77,58,42,26.49,26.49,17,1,17,0.00
2014-2-6,10,2,-9,-2,-13,-24,45,43,42,26.49,26.49,4,0,4,0.00
2014-2-7,16,9,0,2,-5,-15,56,49,43,26.49,26.49,10,0,13,0.00
2014-2-8,31,21,12,18,12,0,80,62,43,26.49,26.49,8,0,9,0.00
2014-2-9,21,13,10,15,4,-1,73,58,50,26.49,26.49,10,0,10,0.00
2014-2-10,15,8,-2,4,-3,-11,55,51,44,26.49,26.49,3,0,3,0.00
2014-2-11,22,15,6,8,1,-7,58,51,49,26.49,26.49,11,0,11,0.00
2014-2-12,32,25,20,24,17,6,85,65,47,26.49,26.49,15,1,15,0.00
2014-2-13,52,39,28,33,26,22,80,55,35,26.49,26.49,12,1,12,0.00
2014-2-14,35,26,22,24,16,10,76,56,39,26.49,26.49,13,0,13,0.00
2014-2-15,57,36,23,33,22,10,69,57,28,26.49,26.49,17,1,17,0.00
2014-2-16,36,31,26,28,25,21,81,74,65,26.49,26.49,12,0,13,0.00
2014-2-17,54,41,29,34,25,15,92,53,26,26.49,26.49,15,1,15,0.00
2014-2-18,68,50,36,29,24,19,52,35,22,26.49,26.49,16,1,17,0.00
2014-2-19,53,40,25,30,23,18,69,49,30,26.49,26.49,11,0,11,0.00
2014-2-20,44,36,28,36,27,15,96,66,45,26.49,26.49,23,2,23,0.31
2014-2-21,50,35,23,30,20,13,68,49,31,26.49,26.49,12,0,16,0.00
2014-2-22,44,35,29,27,21,13,75,50,36,26.49,26.49,11,1,11,0.00
2014-2-23,31,27,23,14,10,6,47,42,35,26.49,26.49,4,0,4,0.00
2014-2-24,28,25,22,19,16,10,74,63,44,26.49,26.49,3,0,4,0.00
2014-2-25,24,15,9,19,5,-1,76,58,47,26.49,26.49,15,1,15,0.00
2014-2-26,35,20,3,15,5,-8,58,48,38,26.49,26.49,15,2,15,0.00
2014-2-27,24,18,9,11,0,-3,57,41,31,26.49,26.49,9,0,9,0.00
2014-2-28,47,27,18,27,11,0,68,47,32,26.49,26.49,16,1,18,0.00
2014-3-1,20,9,2,10,-1,-8,59,56,55,26.49,26.49,13,2,17,0.00
2014-3-2,5,1,-4,1,-8,-14,56,56,56,26.49,26.49,15,1,15,0.00
2014-3-3,22,10,-3,3,-4,-12,56,48,38,26.49,26.49,15,1,17,0.00
2014-3-4,42,27,14,22,10,-2,56,46,39,26.49,26.49,4,0,4,0.00
2014-3-5,36,27,21,19,15,11,78,54,40,26.49,26.49,10,0,10,0.00
2014-3-6,39,30,21,33,26,17,98,81,60,0.00,40.00,13,0,16,0.00
2014-3-7,43,36,28,37,28,18,84,69,54,26.49,26.49,17,2,17,0.00
2014-3-8,41,31,20,23,16,10,68,46,28,26.49,26.49,15,0,15,0.00
2014-3-9,71,49,26,34,24,10,52,37,22,26.49,26.49,22,2,22,0.00
2014-3-10,75,58,41,39,31,25,48,34,21,26.49,26.49,3,0,4,0.00
2014-3-11,54,44,34,35,31,26,89,59,39,26.49,26.49,27,2,27,0.00
2014-3-12,54,40,29,34,27,17,84,55,27,0.00,40.00,15,0,16,0.00
2014-3-13,68,50,29,31,24,17,61,37,20,26.49,26.49,15,1,16,0.00
2014-3-14,59,50,40,31,25,19,57,34,23,26.49,26.49,13,0,15,0.00
2014-3-15,72,48,32,34,24,18,72,38,21,26.49,26.49,22,2,22,0.00
2014-3-16,41,33,24,28,19,10,80,49,27,26.49,26.49,13,1,13,0.00
2014-3-17,60,44,27,29,22,13,59,42,28,26.49,26.49,17,2,17,0.00
2014-3-18,58,46,32,35,28,24,87,48,33,26.49,26.49,22,1,22,0.00
2014-3-19,52,41,32,32,28,22,87,56,35,26.49,26.49,17,1,17,0.00
2014-3-20,65,47,28,36,27,22,70,43,21,26.49,26.49,3,0,3,0.00
2014-3-21,57,46,34,33,28,20,59,43,28,26.49,26.49,18,2,20,0.00
2014-3-22,34,28,22,21,13,9,61,47,32,26.49,26.49,13,1,15,0.00
2014-3-23,42,30,16,17,11,6,58,40,30,26.49,26.49,8,0,11,0.00
2014-3-24,47,36,30,26,17,11,66,40,28,26.49,26.49,15,0,15,0.00
2014-3-25,41,33,24,20,16,8,66,42,26,26.49,26.49,13,0,13,0.00
2014-3-26,64,44,30,41,26,7,88,49,32,26.49,26.49,30,6,30,0.04
2014-3-27,56,42,35,52,39,27,98,86,69,26.49,26.49,17,1,19,0.04
2014-3-28,48,37,26,30,26,22,76,58,35,26.49,26.49,4,0,8,0.00
2014-3-29,59,43,25,32,27,21,81,54,31,26.49,26.49,12,0,12,0.00
2014-3-30,74,61,49,36,32,27,47,34,24,26.49,26.49,20,3,20,0.00
2014-3-31,71,53,31,41,31,16,61,41,30,26.49,26.49,22,6,22,0.00
2014-4-1,45,36,25,24,20,14,66,48,36,26.49,26.49,15,0,15,0.00
2014-4-2,44,39,34,41,26,17,93,57,42,26.49,26.49,9,-3,10,0.00
2014-4-3,41,39,34,42,40,35,98,96,88,26.49,26.49,15,1,15,0.12
2014-4-4,45,38,34,36,30,25,98,65,38,26.49,26.49,17,1,20,0.00
2014-4-5,63,47,29,32,28,25,81,50,26,26.49,26.49,17,0,17,0.00
2014-4-6,62,54,47,40,34,29,64,46,36,26.49,26.49,13,0,13,0.00
2014-4-7,65,54,44,45,36,28,83,51,24,26.49,26.49,17,1,17,0.00
2014-4-8,58,49,39,35,30,20,75,45,23,26.49,26.49,14,0,16,0.00
2014-4-9,81,60,36,38,28,18,46,30,19,26.49,26.49,16,1,16,0.00
2014-4-10,68,61,50,37,31,21,47,30,15,26.49,26.49,15,1,15,0.00
2014-4-11,76,62,45,36,30,21,45,30,21,26.49,26.49,13,0,13,0.00
2014-4-12,82,70,60,57,50,35,80,51,33,26.49,26.49,14,1,14,0.00
2014-4-13,65,46,33,53,42,28,98,84,55,26.49,26.49,26,3,26,1.30
2014-4-14,42,35,30,27,23,18,72,54,35,26.49,26.49,13,0,13,0.04
2014-4-15,58,43,26,30,25,19,84,51,28,26.49,26.49,15,0,16,0.00
2014-4-16,68,50,37,38,28,23,60,41,26,26.49,26.49,23,3,23,0.00
2014-4-17,55,44,33,33,26,23,68,47,27,26.49,26.49,13,0,13,0.00
2014-4-18,69,54,37,40,34,25,75,47,32,26.49,26.49,17,0,17,0.00
2014-4-19,78,67,54,46,42,38,56,41,31,26.49,26.49,19,2,19,0.00
2014-4-20,81,68,61,63,52,42,90,58,33,26.49,26.49,16,1,16,0.24
2014-4-21,73,65,57,59,44,28,96,51,18,26.49,26.49,21,1,21,0.08
2014-4-22,70,59,43,36,33,29,63,37,25,26.49,26.49,11,0,11,0.00
2014-4-23,68,59,52,50,41,32,81,53,34,26.49,26.49,19,0,19,0.08
2014-4-24,67,58,51,55,45,35,98,63,32,26.49,26.49,16,0,16,0.31
2014-4-25,79,62,42,46,39,36,77,46,22,26.49,26.49,15,1,15,0.00
2014-4-26,79,67,53,56,48,42,69,50,32,26.49,26.49,21,1,21,0.00
2014-4-27,71,66,60,65,58,52,98,76,53,26.49,26.49,22,1,22,0.47
2014-4-28,64,56,48,60,46,40,88,68,49,26.49,26.49,14,1,15,0.00
2014-4-29,53,45,42,51,43,35,97,85,70,26.49,26.49,16,2,17,0.35
2014-4-30,50,46,42,42,37,32,86,67,47,26.49,26.49,16,1,17,0.00
2014-5-1,52,48,45,41,37,34,82,62,47,26.49,26.49,15,1,15,0.00
2014-5-2,74,56,39,42,36,32,75,49,24,26.49,40.00,11,0,12,0.00
2014-5-3,72,60,48,44,40,38,68,44,25,26.49,40.00,10,0,10,0.00
2014-5-4,64,62,59,43,41,36,65,44,31,26.49,40.00,0,0,0,0.00
2014-5-5,66,62,59,46,42,39,70,46,28,26.49,26.49,0,0,0,0.00
2014-5-6,73,66,61,59,50,42,63,48,37,26.49,26.49,0,0,0,0.00
2014-5-7,73,70,67,62,54,32,84,50,11,26.49,26.49,0,0,0,0.08
2014-5-8,70,68,66,64,55,42,89,66,26,26.49,40.00,0,0,0,0.00
2014-5-9,67,64,60,43,40,36,80,50,27,29.80,29.74,0,0,0,0.00
2014-5-10,72,67,64,53,45,36,57,42,19,29.77,29.65,0,0,0,0.00
2014-5-11,69,66,64,68,57,40,98,79,45,29.77,29.44,0,-234,0,1.97
2014-5-12,66,61,57,58,50,42,98,91,78,30.06,29.65,0,-999,0,0.08
2014-5-13,63,59,54,43,38,32,85,55,32,30.27,30.04,0,-999,0,0.00
2014-5-14,64,60,57,42,37,32,86,53,22,30.27,30.06,0,-999,0,0.00
2014-5-15,61,58,46,34,31,25,70,44,28,30.18,30.09,10,-773,13,0.00
2014-5-16,59,49,37,40,32,26,82,53,34,30.15,30.04,13,2,13,0.00
2014-5-17,70,56,41,45,37,31,90,54,26,30.12,30.06,12,2,12,0.00
2014-5-18,73,62,48,47,40,35,65,46,32,30.12,29.86,32,8,32,0.00
2014-5-19,86,74,62,59,56,47,85,57,36,29.86,29.56,31,10,31,0.00
2014-5-20,91,78,66,62,60,55,81,57,33,29.83,29.65,17,4,17,0.00
2014-5-21,89,76,65,59,47,41,62,38,23,30.04,29.83,17,4,17,0.00
2014-5-22,77,68,57,59,54,40,96,64,34,30.24,30.01,19,4,19,0.31
2014-5-23,81,70,59,60,52,45,92,58,31,30.15,30.04,13,-347,17,0.00
2014-5-24,78,70,62,65,59,50,95,72,43,30.06,29.95,20,5,20,0.16
2014-5-25,85,72,66,69,66,62,98,83,48,29.98,29.83,32,5,33,0.59
2014-5-26,86,75,66,71,63,54,98,71,36,29.95,29.86,18,5,20,0.00
2014-5-27,89,78,67,66,61,53,94,61,31,29.95,29.86,13,3,13,0.00
2014-5-28,95,80,67,66,61,54,90,56,28,29.98,29.92,9,2,9,0.00
2014-5-29,90,78,67,65,61,54,85,58,34,30.01,29.92,13,3,13,0.00
2014-5-30,88,79,71,68,63,59,85,60,39,30.04,29.92,22,5,22,0.00
2014-5-31,86,78,70,68,63,58,89,62,41,30.04,29.83,17,6,17,0.00
2014-6-1,88,75,66,68,65,59,98,73,42,29.89,29.65,26,7,26,0.71
2014-6-2,87,74,63,64,60,51,98,66,31,29.95,29.77,8,-151,9,0.00
2014-6-3,89,75,64,72,64,57,98,70,39,30.01,29.59,36,6,55,1.18
2014-6-4,83,71,64,69,64,59,98,79,49,29.83,29.68,13,4,13,0.39
2014-6-5,85,74,66,70,64,60,98,76,43,29.92,29.77,13,2,13,0.00
2014-6-6,89,77,67,69,63,54,95,66,33,29.95,29.80,14,4,14,0.00
2014-6-7,78,70,64,68,61,56,98,74,51,30.04,29.86,16,5,16,0.59
2014-6-8,72,66,59,62,57,54,89,75,56,30.06,29.92,11,3,11,0.00
2014-6-9,76,68,64,63,61,57,96,78,59,29.92,29.83,13,5,13,0.00
2014-6-10,76,66,60,60,58,49,91,76,52,29.89,29.80,13,3,13,0.00
2014-6-11,84,73,58,65,58,55,92,62,41,29.83,29.71,19,5,19,0.00
2014-6-12,77,70,60,65,50,41,82,52,35,30.06,29.83,17,5,19,0.00
2014-6-13,130,68,50,52,47,43,84,50,32,30.06,29.83,23,-367,23,0.00
2014-6-14,86,76,64,71,64,52,78,67,59,29.83,29.47,33,12,33,0.00
2014-6-15,88,74,61,70,60,54,94,63,39,29.89,29.47,35,4,35,0.35
2014-6-16,89,78,66,76,70,60,94,79,62,29.89,29.59,36,10,36,0.08
2014-6-17,93,83,70,75,71,63,81,69,49,29.74,29.62,30,11,30,0.00
2014-6-18,95,85,76,75,72,69,85,67,45,29.77,29.65,28,10,29,0.00
2014-6-19,88,81,68,75,67,60,91,65,47,29.98,29.74,17,3,17,0.24
2014-6-20,95,81,64,73,67,61,92,66,42,29.98,29.80,22,5,22,0.00
2014-6-21,90,78,63,73,68,62,96,74,51,30.04,29.80,28,5,28,1.73
2014-6-22,88,77,70,71,67,61,91,72,47,29.89,29.74,15,3,15,0.00
2014-6-23,84,75,68,71,63,54,93,69,43,29.98,29.83,8,1,8,0.00
2014-6-24,87,75,64,68,61,55,92,66,39,30.01,29.95,9,0,9,0.00
2014-6-25,88,78,66,70,65,62,93,68,45,30.01,29.89,15,3,15,0.00
2014-6-26,88,76,71,75,70,66,90,80,58,29.95,29.77,31,4,31,0.28
2014-6-27,82,74,68,73,69,66,95,84,72,29.80,29.65,30,9,30,0.08
2014-6-28,84,74,65,70,66,63,96,78,57,29.80,29.65,22,6,26,0.31
2014-6-29,93,78,66,76,70,64,95,79,49,29.86,29.71,15,3,15,0.00
2014-6-30,91,78,69,76,70,59,94,76,49,29.80,29.59,17,3,20,0.00
2014-7-1,84,72,63,62,57,52,83,63,43,30.01,29.80,21,4,21,0.00
2014-7-2,74,64,58,56,52,48,90,67,44,30.15,30.01,13,3,13,0.00
2014-7-3,82,70,52,58,54,50,92,61,38,30.21,30.12,13,-423,13,0.00
2014-7-4,85,74,61,62,58,55,85,60,39,30.21,30.04,24,8,24,0.00
2014-7-5,91,78,68,77,70,61,93,76,55,30.06,29.86,22,5,22,0.08
2014-7-6,102,86,70,78,71,64,92,65,40,29.86,29.77,13,2,13,0.00
2014-7-7,102,82,69,69,66,57,91,63,32,29.86,29.77,13,1,14,0.16
2014-7-8,84,75,65,68,60,54,91,62,40,30.01,29.86,14,3,15,0.00
2014-7-9,89,74,61,68,61,56,92,69,35,30.06,29.95,13,1,13,0.08
2014-7-10,88,77,66,68,65,62,92,69,47,30.01,29.92,22,7,24,0.00
2014-7-11,94,79,70,77,71,66,90,77,50,29.98,29.89,15,4,17,0.00
2014-7-12,96,82,73,77,70,67,91,69,44,30.01,29.92,13,3,13,0.00
2014-7-13,96,80,67,73,68,62,94,70,37,30.04,29.95,11,0,11,0.08
2014-7-14,82,72,62,69,57,45,91,62,37,30.15,29.95,17,3,17,0.04
2014-7-15,78,67,55,56,51,47,90,60,40,30.18,30.04,73,2,73,0.00
2014-7-16,85,70,54,57,52,48,93,57,34,30.06,29.98,1,0,1,0.00
2014-7-17,84,71,58,62,56,50,89,62,35,30.06,29.98,13,2,13,0.00
2014-7-18,79,70,60,63,60,57,91,71,49,30.04,29.95,18,6,19,0.00
2014-7-19,84,73,61,68,63,58,91,72,57,30.01,29.86,22,6,22,0.00
2014-7-20,91,79,66,74,69,63,91,72,54,29.89,29.77,23,8,23,0.00
2014-7-21,99,87,75,78,74,71,91,67,45,29.86,29.77,24,7,24,0.00
2014-7-22,102,88,75,77,72,67,84,61,42,30.12,29.86,13,3,14,0.00
2014-7-23,93,80,66,68,61,56,85,56,31,30.21,30.09,9,2,9,0.00
2014-7-24,86,78,68,64,63,60,80,61,46,30.12,29.83,24,8,25,0.00
2014-7-25,104,87,72,81,72,62,89,64,37,29.92,29.71,15,3,23,0.00
2014-7-26,97,84,74,81,76,71,92,78,55,29.92,29.77,11,1,11,0.00
2014-7-27,85,77,68,75,62,54,94,62,40,30.15,29.92,16,3,16,0.00
2014-7-28,83,72,60,60,56,52,91,61,41,30.24,30.15,13,2,13,0.00
2014-7-29,87,73,59,63,56,51,89,58,37,30.18,30.06,11,0,11,0.00
2014-7-30,88,74,61,61,55,49,91,55,32,30.12,30.06,0,0,0,0.00
2014-7-31,89,75,59,60,57,54,90,57,37,30.09,29.95,13,2,15,0.00
2014-8-1,90,77,66,64,60,56,81,57,41,30.06,29.98,0,0,0,0.00
2014-8-2,90,77,63,72,64,60,93,68,42,30.12,30.01,14,2,14,0.04
2014-8-3,96,80,67,71,66,59,82,64,39,30.09,29.95,21,5,21,0.00
2014-8-4,89,79,67,72,68,65,93,72,51,30.04,29.95,10,2,10,0.00
2014-8-5,93,81,69,73,69,64,93,69,41,30.04,29.92,14,4,14,0.00
2014-8-6,86,76,70,74,71,69,94,85,66,29.95,29.83,14,4,14,0.12
2014-8-7,81,73,69,72,68,66,95,85,65,29.95,29.89,8,2,8,0.00
2014-8-8,85,75,70,71,68,66,93,80,60,29.98,29.92,12,3,12,0.00
2014-8-9,87,75,68,70,68,67,96,80,58,30.01,29.92,13,4,13,0.35
2014-8-10,89,76,68,72,68,65,93,78,55,30.04,29.95,10,1,11,0.08
2014-8-11,82,73,64,69,59,51,93,66,41,30.12,30.04,13,2,14,0.00
2014-8-12,86,72,58,61,56,51,92,61,36,30.15,30.04,12,1,13,0.00
2014-8-13,90,75,59,62,58,55,92,60,34,30.12,30.01,2,0,2,0.00
2014-8-14,88,76,63,66,61,58,85,61,41,30.06,29.92,16,3,17,0.00
2014-8-15,74,72,70,71,67,62,94,85,70,29.92,29.80,10,4,15,0.24
2014-8-16,91,78,69,73,68,66,95,74,47,29.92,29.80,7,2,8,0.00
2014-8-17,96,80,69,73,69,66,93,71,43,30.01,29.83,10,2,10,0.04
2014-8-18,97,80,64,74,66,62,94,67,38,30.01,29.77,15,2,17,0.16
2014-8-19,99,84,70,73,68,63,93,63,33,29.83,29.74,9,1,9,0.00
2014-8-20,94,85,76,74,70,66,84,62,40,29.80,29.71,23,6,23,0.00
2014-8-21,91,82,72,76,72,67,93,70,55,29.86,29.74,18,3,18,0.08
2014-8-22,101,85,74,79,73,69,92,70,43,29.89,29.80,13,2,13,0.31
2014-8-23,95,82,69,74,69,61,95,69,39,29.92,29.71,17,6,17,0.08
2014-8-24,97,84,73,69,64,58,73,53,38,29.89,29.74,18,3,18,0.00
2014-8-25,88,75,68,67,61,53,91,64,38,30.06,29.86,17,3,17,0.00
2014-8-26,85,72,63,71,66,55,96,82,60,30.15,29.98,13,3,13,0.83
2014-8-27,78,72,69,73,69,66,95,91,82,30.12,29.98,11,2,11,0.35
2014-8-28,84,75,69,74,70,68,96,84,67,30.01,29.77,22,5,22,0.75
2014-8-29,80,72,68,71,68,66,94,86,73,29.83,29.74,12,2,12,0.00
2014-8-30,92,77,64,70,65,60,95,69,39,29.95,29.80,10,2,10,0.00
2014-8-31,95,75,68,75,67,64,93,79,41,29.80,29.59,13,4,16,0.63
2014-9-1,86,73,63,68,64,58,96,76,46,29.92,29.68,9,2,9,0.00
2014-9-2,89,74,58,64,59,54,94,62,38,30.01,29.89,10,1,10,0.00
2014-9-3,90,78,68,76,70,61,94,78,54,29.89,29.68,22,7,26,0.00
2014-9-4,100,84,73,75,70,61,86,64,39,29.95,29.68,17,6,23,0.00
2014-9-5,73,64,59,60,57,54,91,78,62,30.24,29.95,13,4,15,0.00
2014-9-6,79,65,51,58,52,47,96,66,38,30.27,30.15,8,1,8,0.00
2014-9-7,81,67,51,56,52,49,93,63,38,30.21,29.98,14,3,15,0.00
2014-9-8,90,75,61,70,62,54,88,67,46,29.98,29.71,19,7,24,0.00
2014-9-9,78,72,67,72,69,66,96,89,77,29.77,29.56,17,4,17,1.54
2014-9-10,68,62,56,67,58,51,96,86,70,30.06,29.62,15,6,17,1.54
2014-9-11,57,54,51,53,51,49,93,89,79,30.30,30.06,12,4,12,0.04
2014-9-12,56,50,44,50,45,41,96,85,64,30.42,30.30,11,3,11,0.51
2014-9-13,64,53,38,49,41,37,98,68,42,30.39,30.15,21,4,24,0.00
2014-9-14,76,64,49,56,50,45,91,63,41,30.18,30.01,13,4,13,0.00
2014-9-15,70,62,51,59,51,42,92,69,45,30.24,29.98,15,4,20,0.00
2014-9-16,74,60,44,54,47,42,95,65,39,30.24,29.95,13,3,13,0.00
2014-9-17,84,70,57,66,59,53,90,70,49,29.95,29.86,9,2,10,0.00